Portada
METAR-TAF:

METAR-TAF

Aeroports :

Beverly, Massachusetts, Estats Units d'Amèrica

latitud: 42-35-01N, longitud: 070-54-59W, altitud: 33 m

Observació

L'informe es va fer fa 1 hora i 1 minuts, a les 14:03 UTC
Vent 8 kt del Nord
Temperatura 2°C
Humitat 80%
Pressió 1013 hPa
Visibilitat: 14.5 km
Cel cobert a una alçada de 1100 ft

METAR: KBVY 181403Z 36008KT 9SM OVC011 02/M01 A2991 RMK AO2 T00171011 $

Hora: 10:04 (15:04 UTC)


TAF: manca

Observacions i pronòstics meteorològics de més de 4000 aeroports (METAR i TAF).

Les estacions disponibles són els punts grocs i vermells al mapa.

Posi el ratolí al punt desitjat per veure el nom de l'estació.

Feu clic per veure les observacions i els pronòstics meteorològics.

Per canviar el mapa: feu clic els botons verds amb una creu de color negre per apropar; al botó verd amb un guió per allunyar la imatge; o en les fletxes verdes per a mapes adjacents.


METAR-TAF: